PWSweather.com
Personal Weather Stations
Station Observations
IPODRAVI2
Croatia, Trnovec BartoloveckiHR

CroatiaTrnovec BartoloveckiHR

Lat: 46.2947, Lon: 16.3989

Elevation: 535

Station Type: Davis Vantage Pro2 plus

http://www.pljusak.com/trnovec1/wx.html

High Low Average
Temperature 78.6°F25.9°F 67.1°F19.5°F 72.6°F22.6°F
Dew Point 69.3°F20.7°F 64.4°F18.0°F 66.9°F19.4°F
Winds 9.2 mph NE14.8 mph NE Calm Calm 1.2 mph 1.9 mph
Wind Gusts 13.8 mph22.2 mph -- 2.5 mph4.0 mph
Humidity 92% 68% 83%
Pressure 30.01 in1016.30 in 29.96 in1014.60 in -
Precipitation 0.00 in0.00 in - -
Hour Temp Dew Point Humidity Winds Wind Gusts Pressure Precip Precip Rate Daily Precip Total
12:00 AM 72.8°F22.7°C 67.3°F19.6°C 83% Calm Calm -- 29.98 in1015.2 mb - 0.00 in0.0 mm 0.00 in0.0 mm
12:05 AM 72.7°F22.6°C 67.2°F19.6°C 83% Calm Calm -- 29.97 in1014.9 mb - 0.00 in0.0 mm 0.00 in0.0 mm
12:10 AM 72.6°F22.6°C 67.1°F19.5°C 83% Calm Calm -- 29.98 in1015.2 mb - 0.00 in0.0 mm 0.00 in0.0 mm
12:15 AM 72.5°F22.5°C 66.7°F19.3°C 82% Calm Calm -- 29.97 in1014.9 mb - 0.00 in0.0 mm 0.00 in0.0 mm
12:20 AM 72.5°F22.5°C 67.0°F19.4°C 83% Calm Calm -- 29.97 in1014.9 mb - 0.00 in0.0 mm 0.00 in0.0 mm
12:25 AM 72.5°F22.5°C 67.0°F19.4°C 83% Calm Calm -- 29.97 in1014.9 mb - 0.00 in0.0 mm 0.00 in0.0 mm
12:30 AM 72.4°F22.4°C 66.9°F19.4°C 83% Calm Calm -- 29.96 in1014.6 mb - 0.00 in0.0 mm 0.00 in0.0 mm
12:35 AM 72.3°F22.4°C 67.2°F19.6°C 84% Calm Calm -- 29.96 in1014.6 mb - 0.00 in0.0 mm 0.00 in0.0 mm
12:40 AM 72.2°F22.3°C 67.1°F19.5°C 84% Calm Calm -- 29.96 in1014.6 mb - 0.00 in0.0 mm 0.00 in0.0 mm
12:45 AM 72.0°F22.2°C 66.9°F19.4°C 84% Calm Calm 1.2 mph1.9 kmh 29.96 in1014.6 mb - 0.00 in0.0 mm 0.00 in0.0 mm
12:50 AM 71.7°F22.1°C 66.9°F19.4°C 85% 2.3 mph NNW3.7 kmh NNW 3.5 mph5.6 kmh 29.97 in1014.9 mb - 0.00 in0.0 mm 0.00 in0.0 mm
12:55 AM 71.4°F21.9°C 67.0°F19.4°C 86% Calm Calm -- 29.97 in1014.9 mb - 0.00 in0.0 mm 0.00 in0.0 mm
01:00 AM 71.3°F21.8°C 66.9°F19.4°C 86% Calm Calm -- 29.97 in1014.9 mb - 0.00 in0.0 mm 0.00 in0.0 mm
01:05 AM 71.3°F21.8°C 66.9°F19.4°C 86% Calm Calm -- 29.97 in1014.9 mb - 0.00 in0.0 mm 0.00 in0.0 mm
01:10 AM 71.3°F21.8°C 66.9°F19.4°C 86% Calm Calm -- 29.97 in1014.9 mb - 0.00 in0.0 mm 0.00 in0.0 mm
01:15 AM 71.3°F21.8°C 66.9°F19.4°C 86% Calm Calm -- 29.98 in1015.2 mb - 0.00 in0.0 mm 0.00 in0.0 mm
01:20 AM 71.3°F21.8°C 66.9°F19.4°C 86% Calm Calm -- 29.98 in1015.2 mb - 0.00 in0.0 mm 0.00 in0.0 mm
01:25 AM 71.4°F21.9°C 67.0°F19.4°C 86% Calm Calm -- 29.97 in1014.9 mb - 0.00 in0.0 mm 0.00 in0.0 mm
01:30 AM 71.5°F21.9°C 67.1°F19.5°C 86% Calm Calm -- 29.97 in1014.9 mb - 0.00 in0.0 mm 0.00 in0.0 mm
01:35 AM 71.7°F22.1°C 67.3°F19.6°C 86% Calm Calm -- 29.98 in1015.2 mb - 0.00 in0.0 mm 0.00 in0.0 mm
01:40 AM 71.9°F22.2°C 67.5°F19.7°C 86% Calm Calm -- 29.98 in1015.2 mb - 0.00 in0.0 mm 0.00 in0.0 mm
01:45 AM 72.1°F22.3°C 67.7°F19.8°C 86% Calm Calm -- 29.98 in1015.2 mb - 0.00 in0.0 mm 0.00 in0.0 mm
01:50 AM 72.1°F22.3°C 68.0°F20.0°C 87% Calm Calm 1.2 mph1.9 kmh 29.97 in1014.9 mb - 0.00 in0.0 mm 0.00 in0.0 mm
01:55 AM 72.1°F22.3°C 68.0°F20.0°C 87% Calm Calm -- 29.97 in1014.9 mb - 0.00 in0.0 mm 0.00 in0.0 mm
02:00 AM 72.0°F22.2°C 68.2°F20.1°C 88% Calm Calm -- 29.97 in1014.9 mb - 0.00 in0.0 mm 0.00 in0.0 mm
02:05 AM 71.9°F22.2°C 68.2°F20.1°C 88% Calm Calm -- 29.97 in1014.9 mb - 0.00 in0.0 mm 0.00 in0.0 mm
02:10 AM 71.7°F22.1°C 68.0°F20.0°C 88% Calm Calm -- 29.97 in1014.9 mb - 0.00 in0.0 mm 0.00 in0.0 mm
02:15 AM 71.7°F22.1°C 68.3°F20.2°C 89% Calm Calm 2.3 mph3.7 kmh 29.97 in1014.9 mb - 0.00 in0.0 mm 0.00 in0.0 mm
02:20 AM 71.6°F22.0°C 68.2°F20.1°C 89% Calm Calm 3.5 mph5.6 kmh 29.97 in1014.9 mb - 0.00 in0.0 mm 0.00 in0.0 mm
02:25 AM 71.6°F22.0°C 68.2°F20.1°C 89% 1.2 mph NW1.9 kmh NW 2.3 mph3.7 kmh 29.97 in1014.9 mb - 0.00 in0.0 mm 0.00 in0.0 mm
02:30 AM 71.5°F21.9°C 67.8°F19.9°C 88% Calm Calm 1.2 mph1.9 kmh 29.98 in1015.2 mb - 0.00 in0.0 mm 0.00 in0.0 mm
02:35 AM 71.5°F21.9°C 67.8°F19.9°C 88% Calm Calm -- 29.98 in1015.2 mb - 0.00 in0.0 mm 0.00 in0.0 mm
02:40 AM 71.5°F21.9°C 67.7°F19.8°C 88% Calm Calm 1.2 mph1.9 kmh 29.98 in1015.2 mb - 0.00 in0.0 mm 0.00 in0.0 mm
02:45 AM 71.4°F21.9°C 68.0°F20.0°C 89% Calm Calm -- 29.98 in1015.2 mb - 0.00 in0.0 mm 0.00 in0.0 mm
02:50 AM 71.2°F21.8°C 67.8°F19.9°C 89% 1.2 mph WNW1.9 kmh WNW 3.5 mph5.6 kmh 29.98 in1015.2 mb - 0.00 in0.0 mm 0.00 in0.0 mm
02:55 AM 71.1°F21.7°C 67.7°F19.8°C 89% 1.2 mph NW1.9 kmh NW 2.3 mph3.7 kmh 29.98 in1015.2 mb - 0.00 in0.0 mm 0.00 in0.0 mm
03:00 AM 71.0°F21.7°C 67.6°F19.8°C 89% Calm Calm -- 29.98 in1015.2 mb - 0.00 in0.0 mm 0.00 in0.0 mm
03:05 AM 70.9°F21.6°C 67.5°F19.7°C 89% Calm Calm 3.5 mph5.6 kmh 29.98 in1015.2 mb - 0.00 in0.0 mm 0.00 in0.0 mm
03:10 AM 70.7°F21.5°C 67.3°F19.6°C 89% 1.2 mph NW1.9 kmh NW 1.2 mph1.9 kmh 29.98 in1015.2 mb - 0.00 in0.0 mm 0.00 in0.0 mm
03:15 AM 70.6°F21.4°C 67.2°F19.6°C 89% Calm Calm -- 29.98 in1015.2 mb - 0.00 in0.0 mm 0.00 in0.0 mm
03:20 AM 70.5°F21.4°C 67.1°F19.5°C 89% Calm Calm -- 29.98 in1015.2 mb - 0.00 in0.0 mm 0.00 in0.0 mm
03:25 AM 70.4°F21.3°C 67.0°F19.4°C 89% Calm Calm 1.2 mph1.9 kmh 29.98 in1015.2 mb - 0.00 in0.0 mm 0.00 in0.0 mm
03:30 AM 70.2°F21.2°C 67.2°F19.6°C 90% 1.2 mph NW1.9 kmh NW 3.5 mph5.6 kmh 29.98 in1015.2 mb - 0.00 in0.0 mm 0.00 in0.0 mm
03:35 AM 70.2°F21.2°C 67.1°F19.5°C 90% 1.2 mph NW1.9 kmh NW 3.5 mph5.6 kmh 29.98 in1015.2 mb - 0.00 in0.0 mm 0.00 in0.0 mm
03:40 AM 70.1°F21.2°C 67.0°F19.4°C 90% Calm Calm -- 29.98 in1015.2 mb - 0.00 in0.0 mm 0.00 in0.0 mm
03:45 AM 70.1°F21.2°C 67.0°F19.4°C 90% Calm Calm 1.2 mph1.9 kmh 29.98 in1015.2 mb - 0.00 in0.0 mm 0.00 in0.0 mm
03:50 AM 70.0°F21.1°C 66.9°F19.4°C 90% Calm Calm 2.3 mph3.7 kmh 29.98 in1015.2 mb - 0.00 in0.0 mm 0.00 in0.0 mm
03:55 AM 69.9°F21.1°C 66.8°F19.3°C 90% Calm Calm -- 29.98 in1015.2 mb - 0.00 in0.0 mm 0.00 in0.0 mm
04:00 AM 69.8°F21.0°C 66.7°F19.3°C 90% Calm Calm 2.3 mph3.7 kmh 29.98 in1015.2 mb - 0.00 in0.0 mm 0.00 in0.0 mm
04:05 AM 69.7°F20.9°C 66.6°F19.2°C 90% 1.2 mph NW1.9 kmh NW 2.3 mph3.7 kmh 29.98 in1015.2 mb - 0.00 in0.0 mm 0.00 in0.0 mm
04:10 AM 69.6°F20.9°C 66.5°F19.2°C 90% Calm Calm 3.5 mph5.6 kmh 29.98 in1015.2 mb - 0.00 in0.0 mm 0.00 in0.0 mm
04:15 AM 69.5°F20.8°C 66.4°F19.1°C 90% Calm Calm 2.3 mph3.7 kmh 29.98 in1015.2 mb - 0.00 in0.0 mm 0.00 in0.0 mm
04:20 AM 69.5°F20.8°C 66.4°F19.1°C 90% Calm Calm 2.3 mph3.7 kmh 29.98 in1015.2 mb - 0.00 in0.0 mm 0.00 in0.0 mm
04:25 AM 69.5°F20.8°C 66.4°F19.1°C 90% Calm Calm -- 29.98 in1015.2 mb - 0.00 in0.0 mm 0.00 in0.0 mm
04:30 AM 69.5°F20.8°C 66.4°F19.1°C 90% 1.2 mph WNW1.9 kmh WNW 3.5 mph5.6 kmh 29.98 in1015.2 mb - 0.00 in0.0 mm 0.00 in0.0 mm
04:35 AM 69.5°F20.8°C 66.4°F19.1°C 90% 1.2 mph WNW1.9 kmh WNW 2.3 mph3.7 kmh 29.98 in1015.2 mb - 0.00 in0.0 mm 0.00 in0.0 mm
04:40 AM 69.5°F20.8°C 66.4°F19.1°C 90% 1.2 mph WNW1.9 kmh WNW 1.2 mph1.9 kmh 29.98 in1015.2 mb - 0.00 in0.0 mm 0.00 in0.0 mm
04:45 AM 69.4°F20.8°C 66.3°F19.1°C 90% 1.2 mph NW1.9 kmh NW 1.2 mph1.9 kmh 29.98 in1015.2 mb - 0.00 in0.0 mm 0.00 in0.0 mm
04:50 AM 69.2°F20.7°C 66.2°F19.0°C 90% 1.2 mph NW1.9 kmh NW 3.5 mph5.6 kmh 29.99 in1015.6 mb - 0.00 in0.0 mm 0.00 in0.0 mm
04:55 AM 69.2°F20.7°C 66.1°F18.9°C 90% 1.2 mph NW1.9 kmh NW 3.5 mph5.6 kmh 29.99 in1015.6 mb - 0.00 in0.0 mm 0.00 in0.0 mm
05:00 AM 69.1°F20.6°C 66.0°F18.9°C 90% 1.2 mph NW1.9 kmh NW 1.2 mph1.9 kmh 29.99 in1015.6 mb - 0.00 in0.0 mm 0.00 in0.0 mm
05:05 AM 69.1°F20.6°C 66.0°F18.9°C 90% Calm Calm -- 29.99 in1015.6 mb - 0.00 in0.0 mm 0.00 in0.0 mm
05:10 AM 69.1°F20.6°C 66.4°F19.1°C 91% Calm Calm -- 29.99 in1015.6 mb - 0.00 in0.0 mm 0.00 in0.0 mm
05:15 AM 69.2°F20.7°C 66.1°F18.9°C 90% Calm Calm -- 29.99 in1015.6 mb - 0.00 in0.0 mm 0.00 in0.0 mm
05:20 AM 69.4°F20.8°C 66.3°F19.1°C 90% Calm Calm -- 29.99 in1015.6 mb - 0.00 in0.0 mm 0.00 in0.0 mm
05:25 AM 69.5°F20.8°C 66.4°F19.1°C 90% Calm Calm -- 29.99 in1015.6 mb - 0.00 in0.0 mm 0.00 in0.0 mm
05:30 AM 69.6°F20.9°C 66.2°F19.0°C 89% Calm Calm -- 29.98 in1015.2 mb - 0.00 in0.0 mm 0.00 in0.0 mm
05:35 AM 69.7°F20.9°C 66.3°F19.1°C 89% 1.2 mph NW1.9 kmh NW 2.3 mph3.7 kmh 29.98 in1015.2 mb - 0.00 in0.0 mm 0.00 in0.0 mm
05:40 AM 69.8°F21.0°C 66.4°F19.1°C 89% Calm Calm 1.2 mph1.9 kmh 29.98 in1015.2 mb - 0.00 in0.0 mm 0.00 in0.0 mm
05:45 AM 70.0°F21.1°C 66.6°F19.2°C 89% Calm Calm 3.5 mph5.6 kmh 29.98 in1015.2 mb - 0.00 in0.0 mm 0.00 in0.0 mm
05:50 AM 70.3°F21.3°C 66.9°F19.4°C 89% Calm Calm 2.3 mph3.7 kmh 29.98 in1015.2 mb - 0.00 in0.0 mm 0.00 in0.0 mm
05:55 AM 70.6°F21.4°C 67.2°F19.6°C 89% Calm Calm -- 29.98 in1015.2 mb - 0.00 in0.0 mm 0.00 in0.0 mm
06:00 AM 70.9°F21.6°C 67.1°F19.5°C 88% Calm Calm -- 29.98 in1015.2 mb - 0.00 in0.0 mm 0.00 in0.0 mm
06:05 AM 71.1°F21.7°C 67.4°F19.7°C 88% Calm Calm -- 29.98 in1015.2 mb - 0.00 in0.0 mm 0.00 in0.0 mm
06:10 AM 71.3°F21.8°C 67.2°F19.6°C 87% Calm Calm -- 29.98 in1015.2 mb - 0.00 in0.0 mm 0.00 in0.0 mm
06:15 AM 71.6°F22.0°C 67.5°F19.7°C 87% Calm Calm -- 29.98 in1015.2 mb - 0.00 in0.0 mm 0.00 in0.0 mm
06:20 AM 71.9°F22.2°C 67.5°F19.7°C 86% Calm Calm 3.5 mph5.6 kmh 29.98 in1015.2 mb - 0.00 in0.0 mm 0.00 in0.0 mm
06:25 AM 72.3°F22.4°C 67.9°F19.9°C 86% Calm Calm 2.3 mph3.7 kmh 29.98 in1015.2 mb - 0.00 in0.0 mm 0.00 in0.0 mm
06:30 AM 72.5°F22.5°C 67.7°F19.8°C 85% 1.2 mph NW1.9 kmh NW 3.5 mph5.6 kmh 29.98 in1015.2 mb - 0.00 in0.0 mm 0.00 in0.0 mm
06:35 AM 72.6°F22.6°C 67.5°F19.7°C 84% 2.3 mph NW3.7 kmh NW 3.5 mph5.6 kmh 29.98 in1015.2 mb - 0.00 in0.0 mm 0.00 in0.0 mm
06:40 AM 72.7°F22.6°C 67.6°F19.8°C 84% 1.2 mph NW1.9 kmh NW 3.5 mph5.6 kmh 29.98 in1015.2 mb - 0.00 in0.0 mm 0.00 in0.0 mm
06:45 AM 72.9°F22.7°C 67.8°F19.9°C 84% 1.2 mph NW1.9 kmh NW 3.5 mph5.6 kmh 29.98 in1015.2 mb - 0.00 in0.0 mm 0.00 in0.0 mm
06:50 AM 73.1°F22.8°C 67.3°F19.6°C 82% 5.8 mph NW9.3 kmh NW 8.1 mph13.0 kmh 29.98 in1015.2 mb - 0.00 in0.0 mm 0.00 in0.0 mm
06:55 AM 73.3°F22.9°C 67.5°F19.7°C 82% 2.3 mph N3.7 kmh N 3.5 mph5.6 kmh 29.98 in1015.2 mb - 0.00 in0.0 mm 0.00 in0.0 mm
07:00 AM 73.6°F23.1°C 67.4°F19.7°C 81% 5.8 mph NW9.3 kmh NW 10.4 mph16.7 kmh 29.98 in1015.2 mb - 0.00 in0.0 mm 0.00 in0.0 mm
07:05 AM 73.8°F23.2°C 67.6°F19.8°C 81% 5.8 mph NW9.3 kmh NW 8.1 mph13.0 kmh 29.98 in1015.2 mb - 0.00 in0.0 mm 0.00 in0.0 mm
07:10 AM 74.0°F23.3°C 67.8°F19.9°C 81% 3.5 mph NNW5.6 kmh NNW 9.2 mph14.8 kmh 29.98 in1015.2 mb - 0.00 in0.0 mm 0.00 in0.0 mm
07:15 AM 74.1°F23.4°C 67.9°F19.9°C 81% 4.6 mph NNW7.4 kmh NNW 10.4 mph16.7 kmh 29.98 in1015.2 mb - 0.00 in0.0 mm 0.00 in0.0 mm
07:20 AM 74.3°F23.5°C 68.1°F20.1°C 81% 6.9 mph NNW11.1 kmh NNW 9.2 mph14.8 kmh 29.98 in1015.2 mb - 0.00 in0.0 mm 0.00 in0.0 mm
07:25 AM 74.7°F23.7°C 68.5°F20.3°C 81% 6.9 mph NNW11.1 kmh NNW 9.2 mph14.8 kmh 29.98 in1015.2 mb - 0.00 in0.0 mm 0.00 in0.0 mm
07:30 AM 75.1°F23.9°C 68.5°F20.3°C 80% 3.5 mph NNW5.6 kmh NNW 4.6 mph7.4 kmh 29.98 in1015.2 mb - 0.00 in0.0 mm 0.00 in0.0 mm
07:35 AM 75.7°F24.3°C 68.8°F20.4°C 79% 4.6 mph NNE7.4 kmh NNE 6.9 mph11.1 kmh 29.98 in1015.2 mb - 0.00 in0.0 mm 0.00 in0.0 mm
07:40 AM 75.8°F24.3°C 68.8°F20.4°C 79% 4.6 mph NNW7.4 kmh NNW 8.1 mph13.0 kmh 29.98 in1015.2 mb - 0.00 in0.0 mm 0.00 in0.0 mm
07:45 AM 76.3°F24.6°C 69.3°F20.7°C 79% 4.6 mph NNE7.4 kmh NNE 10.4 mph16.7 kmh 29.98 in1015.2 mb - 0.00 in0.0 mm 0.00 in0.0 mm
07:50 AM 76.8°F24.9°C 69.0°F20.6°C 77% 6.9 mph NNE11.1 kmh NNE 10.4 mph16.7 kmh 29.98 in1015.2 mb - 0.00 in0.0 mm 0.00 in0.0 mm
07:55 AM 76.7°F24.8°C 68.2°F20.1°C 75% 9.2 mph NE14.8 kmh NE 11.5 mph18.5 kmh 29.99 in1015.6 mb - 0.00 in0.0 mm 0.00 in0.0 mm
08:00 AM 76.7°F24.8°C 68.2°F20.1°C 75% 8.1 mph NNE13.0 kmh NNE 9.2 mph14.8 kmh 29.99 in1015.6 mb - 0.00 in0.0 mm 0.00 in0.0 mm
08:05 AM 76.6°F24.8°C 68.5°F20.3°C 76% 4.6 mph NE7.4 kmh NE 10.4 mph16.7 kmh 29.99 in1015.6 mb - 0.00 in0.0 mm 0.00 in0.0 mm
08:10 AM 76.5°F24.7°C 68.3°F20.2°C 76% 6.9 mph NE11.1 kmh NE 12.7 mph20.4 kmh 29.99 in1015.6 mb - 0.00 in0.0 mm 0.00 in0.0 mm
08:15 AM 76.3°F24.6°C 68.2°F20.1°C 76% 5.8 mph NNE9.3 kmh NNE 11.5 mph18.5 kmh 29.99 in1015.6 mb - 0.00 in0.0 mm 0.00 in0.0 mm
08:20 AM 76.1°F24.5°C 68.0°F20.0°C 76% 3.5 mph NE5.6 kmh NE 5.8 mph9.3 kmh 29.99 in1015.6 mb - 0.00 in0.0 mm 0.00 in0.0 mm
08:25 AM 76.0°F24.4°C 67.9°F19.9°C 76% 8.1 mph NE13.0 kmh NE 11.5 mph18.5 kmh 29.99 in1015.6 mb - 0.00 in0.0 mm 0.00 in0.0 mm
08:30 AM 75.7°F24.3°C 67.6°F19.8°C 76% 8.1 mph NE13.0 kmh NE 13.8 mph22.2 kmh 29.99 in1015.6 mb - 0.00 in0.0 mm 0.00 in0.0 mm
08:35 AM 75.4°F24.1°C 67.7°F19.8°C 77% 6.9 mph NE11.1 kmh NE 11.5 mph18.5 kmh 29.99 in1015.6 mb - 0.00 in0.0 mm 0.00 in0.0 mm
08:40 AM 75.2°F24.0°C 67.5°F19.7°C 77% 5.8 mph NE9.3 kmh NE 6.9 mph11.1 kmh 29.99 in1015.6 mb - 0.00 in0.0 mm 0.00 in0.0 mm
08:45 AM 75.2°F24.0°C 67.9°F19.9°C 78% 5.8 mph NE9.3 kmh NE 12.7 mph20.4 kmh 30.00 in1015.9 mb - 0.00 in0.0 mm 0.00 in0.0 mm
08:50 AM 75.1°F23.9°C 67.8°F19.9°C 78% 9.2 mph ENE14.8 kmh ENE 11.5 mph18.5 kmh 30.00 in1015.9 mb - 0.00 in0.0 mm 0.00 in0.0 mm
08:55 AM 75.0°F23.9°C 67.7°F19.8°C 78% 4.6 mph ENE7.4 kmh ENE 6.9 mph11.1 kmh 30.00 in1015.9 mb - 0.00 in0.0 mm 0.00 in0.0 mm
09:00 AM 75.1°F23.9°C 67.8°F19.9°C 78% 5.8 mph ENE9.3 kmh ENE 10.4 mph16.7 kmh 30.00 in1015.9 mb - 0.00 in0.0 mm 0.00 in0.0 mm
09:05 AM 75.1°F23.9°C 67.8°F19.9°C 78% 5.8 mph NE9.3 kmh NE 9.2 mph14.8 kmh 30.00 in1015.9 mb - 0.00 in0.0 mm 0.00 in0.0 mm
09:10 AM 75.0°F23.9°C 67.3°F19.6°C 77% 9.2 mph NE14.8 kmh NE 11.5 mph18.5 kmh 30.00 in1015.9 mb - 0.00 in0.0 mm 0.00 in0.0 mm
04:00 PM 78.2°F25.7°C 67.6°F19.8°C 70% 3.5 mph N5.6 kmh N 3.5 mph5.6 kmh 29.96 in1014.6 mb - 0.00 in0.0 mm 0.00 in0.0 mm
04:05 PM 78.1°F25.6°C 67.1°F19.5°C 69% 2.3 mph NE3.7 kmh NE 3.5 mph5.6 kmh 29.96 in1014.6 mb - 0.00 in0.0 mm 0.00 in0.0 mm
04:10 PM 78.3°F25.7°C 67.7°F19.8°C 70% 1.2 mph NNE1.9 kmh NNE 6.9 mph11.1 kmh 29.96 in1014.6 mb - 0.00 in0.0 mm 0.00 in0.0 mm
04:15 PM 78.3°F25.7°C 66.9°F19.4°C 68% 3.5 mph ENE5.6 kmh ENE 3.5 mph5.6 kmh 29.96 in1014.6 mb - 0.00 in0.0 mm 0.00 in0.0 mm
04:20 PM 78.5°F25.8°C 67.1°F19.5°C 68% 2.3 mph ENE3.7 kmh ENE 3.5 mph5.6 kmh 29.96 in1014.6 mb - 0.00 in0.0 mm 0.00 in0.0 mm
04:25 PM 78.5°F25.8°C 67.5°F19.7°C 69% 3.5 mph NE5.6 kmh NE 4.6 mph7.4 kmh 29.96 in1014.6 mb - 0.00 in0.0 mm 0.00 in0.0 mm
04:30 PM 78.4°F25.8°C 67.4°F19.7°C 69% 3.5 mph NE5.6 kmh NE 3.5 mph5.6 kmh 29.96 in1014.6 mb - 0.00 in0.0 mm 0.00 in0.0 mm
04:35 PM 78.6°F25.9°C 68.0°F20.0°C 70% 1.2 mph NE1.9 kmh NE 4.6 mph7.4 kmh 29.96 in1014.6 mb - 0.00 in0.0 mm 0.00 in0.0 mm
04:40 PM 78.5°F25.8°C 67.1°F19.5°C 68% 2.3 mph E3.7 kmh E 3.5 mph5.6 kmh 29.97 in1014.9 mb - 0.00 in0.0 mm 0.00 in0.0 mm
04:45 PM 78.2°F25.7°C 66.8°F19.3°C 68% 1.2 mph ENE1.9 kmh ENE 2.3 mph3.7 kmh 29.96 in1014.6 mb - 0.00 in0.0 mm 0.00 in0.0 mm
04:50 PM 78.2°F25.7°C 67.2°F19.6°C 69% 2.3 mph NE3.7 kmh NE 3.5 mph5.6 kmh 29.96 in1014.6 mb - 0.00 in0.0 mm 0.00 in0.0 mm
04:55 PM 78.2°F25.7°C 67.2°F19.6°C 69% 1.2 mph NE1.9 kmh NE 3.5 mph5.6 kmh 29.96 in1014.6 mb - 0.00 in0.0 mm 0.00 in0.0 mm
05:00 PM 78.2°F25.7°C 66.8°F19.3°C 68% Calm Calm -- 29.96 in1014.6 mb - 0.00 in0.0 mm 0.00 in0.0 mm
05:05 PM 78.2°F25.7°C 67.2°F19.6°C 69% Calm Calm -- 29.96 in1014.6 mb - 0.00 in0.0 mm 0.00 in0.0 mm
05:10 PM 78.1°F25.6°C 66.7°F19.3°C 68% Calm Calm 2.3 mph3.7 kmh 29.97 in1014.9 mb - 0.00 in0.0 mm 0.00 in0.0 mm
05:15 PM 78.1°F25.6°C 67.1°F19.5°C 69% Calm Calm -- 29.97 in1014.9 mb - 0.00 in0.0 mm 0.00 in0.0 mm
05:20 PM 78.1°F25.6°C 67.1°F19.5°C 69% Calm Calm 1.2 mph1.9 kmh 29.97 in1014.9 mb - 0.00 in0.0 mm 0.00 in0.0 mm
05:25 PM 78.1°F25.6°C 67.5°F19.7°C 70% 1.2 mph S1.9 kmh S 5.8 mph9.3 kmh 29.97 in1014.9 mb - 0.00 in0.0 mm 0.00 in0.0 mm
05:30 PM 77.8°F25.4°C 67.2°F19.6°C 70% Calm Calm 1.2 mph1.9 kmh 29.97 in1014.9 mb - 0.00 in0.0 mm 0.00 in0.0 mm
05:35 PM 77.6°F25.3°C 67.0°F19.4°C 70% 1.2 mph S1.9 kmh S 3.5 mph5.6 kmh 29.97 in1014.9 mb - 0.00 in0.0 mm 0.00 in0.0 mm
05:40 PM 77.3°F25.2°C 67.2°F19.6°C 71% 2.3 mph S3.7 kmh S 2.3 mph3.7 kmh 29.97 in1014.9 mb - 0.00 in0.0 mm 0.00 in0.0 mm
05:45 PM 77.1°F25.1°C 67.4°F19.7°C 72% 1.2 mph SW1.9 kmh SW 3.5 mph5.6 kmh 29.97 in1014.9 mb - 0.00 in0.0 mm 0.00 in0.0 mm
05:50 PM 77.0°F25.0°C 67.3°F19.6°C 72% Calm Calm 2.3 mph3.7 kmh 29.98 in1015.2 mb - 0.00 in0.0 mm 0.00 in0.0 mm
05:55 PM 76.8°F24.9°C 67.1°F19.5°C 72% Calm Calm 2.3 mph3.7 kmh 29.98 in1015.2 mb - 0.00 in0.0 mm 0.00 in0.0 mm
06:00 PM 76.6°F24.8°C 67.3°F19.6°C 73% Calm Calm 3.5 mph5.6 kmh 29.98 in1015.2 mb - 0.00 in0.0 mm 0.00 in0.0 mm
06:05 PM 76.5°F24.7°C 67.2°F19.6°C 73% Calm Calm -- 29.98 in1015.2 mb - 0.00 in0.0 mm 0.00 in0.0 mm
06:10 PM 76.5°F24.7°C 67.2°F19.6°C 73% 1.2 mph SSW1.9 kmh SSW 3.5 mph5.6 kmh 29.97 in1014.9 mb - 0.00 in0.0 mm 0.00 in0.0 mm
06:15 PM 76.6°F24.8°C 67.7°F19.8°C 74% Calm Calm 2.3 mph3.7 kmh 29.97 in1014.9 mb - 0.00 in0.0 mm 0.00 in0.0 mm
06:20 PM 76.6°F24.8°C 67.3°F19.6°C 73% 1.2 mph SW1.9 kmh SW 3.5 mph5.6 kmh 29.97 in1014.9 mb - 0.00 in0.0 mm 0.00 in0.0 mm
06:25 PM 76.5°F24.7°C 67.6°F19.8°C 74% 2.3 mph WSW3.7 kmh WSW 3.5 mph5.6 kmh 29.98 in1015.2 mb - 0.00 in0.0 mm 0.00 in0.0 mm
06:30 PM 76.5°F24.7°C 67.6°F19.8°C 74% Calm Calm 1.2 mph1.9 kmh 29.98 in1015.2 mb - 0.00 in0.0 mm 0.00 in0.0 mm
06:35 PM 76.4°F24.7°C 67.5°F19.7°C 74% Calm Calm -- 29.98 in1015.2 mb - 0.00 in0.0 mm 0.00 in0.0 mm
06:40 PM 76.3°F24.6°C 67.8°F19.9°C 75% 1.2 mph W1.9 kmh W 2.3 mph3.7 kmh 29.98 in1015.2 mb - 0.00 in0.0 mm 0.00 in0.0 mm
06:45 PM 76.2°F24.6°C 67.3°F19.6°C 74% Calm Calm 1.2 mph1.9 kmh 29.98 in1015.2 mb - 0.00 in0.0 mm 0.00 in0.0 mm
06:50 PM 76.1°F24.5°C 67.6°F19.8°C 75% Calm Calm 2.3 mph3.7 kmh 29.98 in1015.2 mb - 0.00 in0.0 mm 0.00 in0.0 mm
06:55 PM 75.9°F24.4°C 67.0°F19.4°C 74% Calm Calm 1.2 mph1.9 kmh 29.98 in1015.2 mb - 0.00 in0.0 mm 0.00 in0.0 mm
07:00 PM 75.7°F24.3°C 67.2°F19.6°C 75% Calm Calm -- 29.98 in1015.2 mb - 0.00 in0.0 mm 0.00 in0.0 mm
07:05 PM 75.6°F24.2°C 67.5°F19.7°C 76% Calm Calm 2.3 mph3.7 kmh 29.98 in1015.2 mb - 0.00 in0.0 mm 0.00 in0.0 mm
07:10 PM 75.4°F24.1°C 67.3°F19.6°C 76% 1.2 mph WSW1.9 kmh WSW 3.5 mph5.6 kmh 29.98 in1015.2 mb - 0.00 in0.0 mm 0.00 in0.0 mm
07:15 PM 75.2°F24.0°C 67.1°F19.5°C 76% 1.2 mph S1.9 kmh S 2.3 mph3.7 kmh 29.98 in1015.2 mb - 0.00 in0.0 mm 0.00 in0.0 mm
07:20 PM 74.9°F23.8°C 67.2°F19.6°C 77% 1.2 mph S1.9 kmh S 3.5 mph5.6 kmh 29.98 in1015.2 mb - 0.00 in0.0 mm 0.00 in0.0 mm
07:25 PM 74.6°F23.7°C 67.3°F19.6°C 78% 1.2 mph SSW1.9 kmh SSW 2.3 mph3.7 kmh 29.98 in1015.2 mb - 0.00 in0.0 mm 0.00 in0.0 mm
07:30 PM 74.2°F23.4°C 67.3°F19.6°C 79% 1.2 mph SSW1.9 kmh SSW 3.5 mph5.6 kmh 29.98 in1015.2 mb - 0.00 in0.0 mm 0.00 in0.0 mm
07:35 PM 73.9°F23.3°C 67.3°F19.6°C 80% 1.2 mph SW1.9 kmh SW 2.3 mph3.7 kmh 29.98 in1015.2 mb - 0.00 in0.0 mm 0.00 in0.0 mm
07:40 PM 73.6°F23.1°C 67.0°F19.4°C 80% 1.2 mph S1.9 kmh S 2.3 mph3.7 kmh 29.98 in1015.2 mb - 0.00 in0.0 mm 0.00 in0.0 mm
07:45 PM 73.3°F22.9°C 67.1°F19.5°C 81% 1.2 mph S1.9 kmh S 2.3 mph3.7 kmh 29.98 in1015.2 mb - 0.00 in0.0 mm 0.00 in0.0 mm
07:50 PM 73.0°F22.8°C 67.2°F19.6°C 82% Calm Calm 2.3 mph3.7 kmh 29.99 in1015.6 mb - 0.00 in0.0 mm 0.00 in0.0 mm
07:55 PM 72.7°F22.6°C 66.9°F19.4°C 82% Calm Calm 1.2 mph1.9 kmh 29.99 in1015.6 mb - 0.00 in0.0 mm 0.00 in0.0 mm
08:00 PM 72.4°F22.4°C 67.0°F19.4°C 83% Calm Calm -- 29.99 in1015.6 mb - 0.00 in0.0 mm 0.00 in0.0 mm
08:05 PM 72.2°F22.3°C 66.8°F19.3°C 83% Calm Calm -- 29.99 in1015.6 mb - 0.00 in0.0 mm 0.00 in0.0 mm
08:10 PM 72.1°F22.3°C 66.7°F19.3°C 83% Calm Calm 2.3 mph3.7 kmh 30.00 in1015.9 mb - 0.00 in0.0 mm 0.00 in0.0 mm
08:15 PM 72.0°F22.2°C 66.6°F19.2°C 83% Calm Calm -- 30.00 in1015.9 mb - 0.00 in0.0 mm 0.00 in0.0 mm
08:20 PM 71.9°F22.2°C 66.5°F19.2°C 83% 1.2 mph WSW1.9 kmh WSW 3.5 mph5.6 kmh 30.00 in1015.9 mb - 0.00 in0.0 mm 0.00 in0.0 mm
08:25 PM 71.7°F22.1°C 66.6°F19.2°C 84% Calm Calm -- 30.00 in1015.9 mb - 0.00 in0.0 mm 0.00 in0.0 mm
08:30 PM 71.6°F22.0°C 66.5°F19.2°C 84% Calm Calm -- 30.00 in1015.9 mb - 0.00 in0.0 mm 0.00 in0.0 mm
08:35 PM 71.4°F21.9°C 66.3°F19.1°C 84% Calm Calm -- 30.00 in1015.9 mb - 0.00 in0.0 mm 0.00 in0.0 mm
08:40 PM 71.3°F21.8°C 66.2°F19.0°C 84% Calm Calm -- 30.00 in1015.9 mb - 0.00 in0.0 mm 0.00 in0.0 mm
08:45 PM 71.1°F21.7°C 66.0°F18.9°C 84% 1.2 mph WSW1.9 kmh WSW 3.5 mph5.6 kmh 30.00 in1015.9 mb - 0.00 in0.0 mm 0.00 in0.0 mm
08:50 PM 70.9°F21.6°C 66.2°F19.0°C 85% Calm Calm -- 30.00 in1015.9 mb - 0.00 in0.0 mm 0.00 in0.0 mm
08:55 PM 70.8°F21.6°C 66.1°F18.9°C 85% Calm Calm -- 30.00 in1015.9 mb - 0.00 in0.0 mm 0.00 in0.0 mm
09:00 PM 70.7°F21.5°C 65.9°F18.8°C 85% Calm Calm -- 30.00 in1015.9 mb - 0.00 in0.0 mm 0.00 in0.0 mm
09:05 PM 70.5°F21.4°C 65.8°F18.8°C 85% Calm Calm -- 30.00 in1015.9 mb - 0.00 in0.0 mm 0.00 in0.0 mm
09:10 PM 70.4°F21.3°C 66.0°F18.9°C 86% Calm Calm -- 30.00 in1015.9 mb - 0.00 in0.0 mm 0.00 in0.0 mm
09:15 PM 70.3°F21.3°C 66.0°F18.9°C 86% Calm Calm -- 30.00 in1015.9 mb - 0.00 in0.0 mm 0.00 in0.0 mm
09:20 PM 70.3°F21.3°C 65.9°F18.8°C 86% Calm Calm -- 30.01 in1016.3 mb - 0.00 in0.0 mm 0.00 in0.0 mm
09:25 PM 70.2°F21.2°C 65.8°F18.8°C 86% Calm Calm -- 30.01 in1016.3 mb - 0.00 in0.0 mm 0.00 in0.0 mm
09:30 PM 70.1°F21.2°C 65.7°F18.7°C 86% Calm Calm -- 30.01 in1016.3 mb - 0.00 in0.0 mm 0.00 in0.0 mm
09:35 PM 70.0°F21.1°C 65.6°F18.7°C 86% Calm Calm -- 30.01 in1016.3 mb - 0.00 in0.0 mm 0.00 in0.0 mm
09:40 PM 69.9°F21.1°C 65.5°F18.6°C 86% Calm Calm -- 30.01 in1016.3 mb - 0.00 in0.0 mm 0.00 in0.0 mm
09:45 PM 69.9°F21.1°C 65.5°F18.6°C 86% Calm Calm -- 30.01 in1016.3 mb - 0.00 in0.0 mm 0.00 in0.0 mm
09:50 PM 69.8°F21.0°C 65.8°F18.8°C 87% Calm Calm -- 30.00 in1015.9 mb - 0.00 in0.0 mm 0.00 in0.0 mm
09:55 PM 69.6°F20.9°C 65.6°F18.7°C 87% Calm Calm -- 30.01 in1016.3 mb - 0.00 in0.0 mm 0.00 in0.0 mm
10:00 PM 69.5°F20.8°C 65.4°F18.6°C 87% Calm Calm -- 30.01 in1016.3 mb - 0.00 in0.0 mm 0.00 in0.0 mm
10:05 PM 69.3°F20.7°C 65.3°F18.5°C 87% Calm Calm -- 30.00 in1015.9 mb - 0.00 in0.0 mm 0.00 in0.0 mm
10:10 PM 69.2°F20.7°C 65.5°F18.6°C 88% Calm Calm -- 30.00 in1015.9 mb - 0.00 in0.0 mm 0.00 in0.0 mm
10:15 PM 69.1°F20.6°C 65.4°F18.6°C 88% Calm Calm -- 30.00 in1015.9 mb - 0.00 in0.0 mm 0.00 in0.0 mm
10:20 PM 69.0°F20.6°C 65.6°F18.7°C 89% Calm Calm -- 30.00 in1015.9 mb - 0.00 in0.0 mm 0.00 in0.0 mm
10:25 PM 68.9°F20.5°C 65.5°F18.6°C 89% Calm Calm -- 30.00 in1015.9 mb - 0.00 in0.0 mm 0.00 in0.0 mm
10:30 PM 68.9°F20.5°C 65.5°F18.6°C 89% Calm Calm -- 30.00 in1015.9 mb - 0.00 in0.0 mm 0.00 in0.0 mm
10:35 PM 68.8°F20.4°C 65.4°F18.6°C 89% Calm Calm -- 30.00 in1015.9 mb - 0.00 in0.0 mm 0.00 in0.0 mm
10:40 PM 68.7°F20.4°C 65.4°F18.6°C 89% Calm Calm -- 30.00 in1015.9 mb - 0.00 in0.0 mm 0.00 in0.0 mm
10:45 PM 68.7°F20.4°C 65.3°F18.5°C 89% Calm Calm -- 30.00 in1015.9 mb - 0.00 in0.0 mm 0.00 in0.0 mm
10:50 PM 68.6°F20.3°C 65.2°F18.4°C 89% Calm Calm 1.2 mph1.9 kmh 30.00 in1015.9 mb - 0.00 in0.0 mm 0.00 in0.0 mm
10:55 PM 68.5°F20.3°C 65.1°F18.4°C 89% Calm Calm -- 30.00 in1015.9 mb - 0.00 in0.0 mm 0.00 in0.0 mm
11:00 PM 68.4°F20.2°C 65.0°F18.3°C 89% Calm Calm -- 30.00 in1015.9 mb - 0.00 in0.0 mm 0.00 in0.0 mm
11:05 PM 68.3°F20.2°C 64.9°F18.3°C 89% Calm Calm -- 30.00 in1015.9 mb - 0.00 in0.0 mm 0.00 in0.0 mm
11:10 PM 68.2°F20.1°C 64.8°F18.2°C 89% Calm Calm -- 30.00 in1015.9 mb - 0.00 in0.0 mm 0.00 in0.0 mm
11:15 PM 68.0°F20.0°C 65.0°F18.3°C 90% Calm Calm -- 30.00 in1015.9 mb - 0.00 in0.0 mm 0.00 in0.0 mm
11:20 PM 67.9°F19.9°C 64.9°F18.3°C 90% Calm Calm -- 30.00 in1015.9 mb - 0.00 in0.0 mm 0.00 in0.0 mm
11:25 PM 67.8°F19.9°C 64.7°F18.2°C 90% Calm Calm -- 30.00 in1015.9 mb - 0.00 in0.0 mm 0.00 in0.0 mm
11:30 PM 67.6°F19.8°C 64.9°F18.3°C 91% Calm Calm 1.2 mph1.9 kmh 29.99 in1015.6 mb - 0.00 in0.0 mm 0.00 in0.0 mm
11:35 PM 67.5°F19.7°C 64.8°F18.2°C 91% Calm Calm -- 29.99 in1015.6 mb - 0.00 in0.0 mm 0.00 in0.0 mm
11:40 PM 67.3°F19.6°C 64.6°F18.1°C 91% Calm Calm -- 29.99 in1015.6 mb - 0.00 in0.0 mm 0.00 in0.0 mm
11:45 PM 67.2°F19.6°C 64.8°F18.2°C 92% Calm Calm 1.2 mph1.9 kmh 29.99 in1015.6 mb - 0.00 in0.0 mm 0.00 in0.0 mm
11:50 PM 67.1°F19.5°C 64.7°F18.2°C 92% Calm Calm -- 29.99 in1015.6 mb - 0.00 in0.0 mm 0.00 in0.0 mm
11:55 PM 67.1°F19.5°C 64.4°F18.0°C 91% Calm Calm 2.3 mph3.7 kmh 29.99 in1015.6 mb - 0.00 in0.0 mm 0.00 in0.0 mm